sensor_id;sensor_type;location;lat;lon;timestamp;pressure;altitude;pressure_sealevel;temperature;humidity
41684;BME280;27369;52.030;4.586;2023-04-29T00:01:05;108647.53;;;-144.41;100.00
41684;BME280;27369;52.030;4.586;2023-04-29T00:03:30;108647.53;;;-144.41;100.00
41684;BME280;27369;52.030;4.586;2023-04-29T00:05:59;108647.53;;;-144.41;100.00
41684;BME280;27369;52.030;4.586;2023-04-29T00:08:25;108647.53;;;-144.41;100.00
41684;BME280;27369;52.030;4.586;2023-04-29T00:10:50;108647.53;;;-144.41;100.00
41684;BME280;27369;52.030;4.586;2023-04-29T00:13:16;108647.53;;;-144.41;100.00
41684;BME280;27369;52.030;4.586;2023-04-29T00:15:42;108647.53;;;-144.41;100.00
41684;BME280;27369;52.030;4.586;2023-04-29T00:18:07;108647.53;;;-144.41;100.00
41684;BME280;27369;52.030;4.586;2023-04-29T00:20:33;108647.53;;;-144.41;100.00
41684;BME280;27369;52.030;4.586;2023-04-29T00:22:59;108647.53;;;-144.41;100.00
41684;BME280;27369;52.030;4.586;2023-04-29T00:25:24;108647.53;;;-144.41;100.00
41684;BME280;27369;52.030;4.586;2023-04-29T00:27:49;108647.53;;;-144.41;100.00
41684;BME280;27369;52.030;4.586;2023-04-29T00:30:15;108647.53;;;-144.41;100.00
41684;BME280;27369;52.030;4.586;2023-04-29T00:32:40;108647.53;;;-144.41;100.00
41684;BME280;27369;52.030;4.586;2023-04-29T00:35:06;108647.53;;;-144.41;100.00
41684;BME280;27369;52.030;4.586;2023-04-29T00:37:31;108647.53;;;-144.41;100.00
41684;BME280;27369;52.030;4.586;2023-04-29T00:39:57;108647.53;;;-144.41;100.00
41684;BME280;27369;52.030;4.586;2023-04-29T00:42:24;108647.53;;;-144.41;100.00
41684;BME280;27369;52.030;4.586;2023-04-29T00:44:50;108647.53;;;-144.41;100.00
41684;BME280;27369;52.030;4.586;2023-04-29T00:47:15;108647.53;;;-144.41;100.00
41684;BME280;27369;52.030;4.586;2023-04-29T00:49:41;108647.53;;;-144.41;100.00
41684;BME280;27369;52.030;4.586;2023-04-29T00:52:10;108647.53;;;-144.41;100.00
41684;BME280;27369;52.030;4.586;2023-04-29T00:54:36;108647.53;;;-144.41;100.00
41684;BME280;27369;52.030;4.586;2023-04-29T00:57:03;108647.53;;;-144.41;100.00
41684;BME280;27369;52.030;4.586;2023-04-29T00:59:31;108647.53;;;-144.41;100.00
41684;BME280;27369;52.030;4.586;2023-04-29T01:02:01;108647.53;;;-144.41;100.00
41684;BME280;27369;52.030;4.586;2023-04-29T01:04:27;108647.53;;;-144.41;100.00
41684;BME280;27369;52.030;4.586;2023-04-29T01:12:19;108647.53;;;-144.41;100.00
41684;BME280;27369;52.030;4.586;2023-04-29T01:14:48;108647.53;;;-144.41;100.00
41684;BME280;27369;52.030;4.586;2023-04-29T01:17:18;108647.53;;;-144.41;100.00
41684;BME280;27369;52.030;4.586;2023-04-29T01:19:55;108647.53;;;-144.41;100.00
41684;BME280;27369;52.030;4.586;2023-04-29T01:22:23;108647.53;;;-144.41;100.00
41684;BME280;27369;52.030;4.586;2023-04-29T01:24:48;108647.53;;;-144.41;100.00
41684;BME280;27369;52.030;4.586;2023-04-29T01:27:38;108647.53;;;-144.41;100.00
41684;BME280;27369;52.030;4.586;2023-04-29T01:33:00;108647.53;;;-144.41;100.00
41684;BME280;27369;52.030;4.586;2023-04-29T01:35:53;108647.53;;;-144.41;100.00
41684;BME280;27369;52.030;4.586;2023-04-29T01:43:32;108647.53;;;-144.41;100.00
41684;BME280;27369;52.030;4.586;2023-04-29T01:45:58;108647.53;;;-144.41;100.00
41684;BME280;27369;52.030;4.586;2023-04-29T01:48:25;108647.53;;;-144.41;100.00
41684;BME280;27369;52.030;4.586;2023-04-29T01:50:51;108647.53;;;-144.41;100.00
41684;BME280;27369;52.030;4.586;2023-04-29T01:53:16;108647.53;;;-144.41;100.00
41684;BME280;27369;52.030;4.586;2023-04-29T01:55:41;108647.53;;;-144.41;100.00
41684;BME280;27369;52.030;4.586;2023-04-29T01:58:09;108647.53;;;-144.41;100.00
41684;BME280;27369;52.030;4.586;2023-04-29T02:00:35;108647.53;;;-144.41;100.00
41684;BME280;27369;52.030;4.586;2023-04-29T02:03:02;108647.53;;;-144.41;100.00
41684;BME280;27369;52.030;4.586;2023-04-29T02:05:28;108647.53;;;-144.41;100.00
41684;BME280;27369;52.030;4.586;2023-04-29T02:07:56;108647.53;;;-144.41;100.00
41684;BME280;27369;52.030;4.586;2023-04-29T02:10:21;108647.53;;;-144.41;100.00
41684;BME280;27369;52.030;4.586;2023-04-29T02:12:47;108647.53;;;-144.41;100.00
41684;BME280;27369;52.030;4.586;2023-04-29T02:15:12;108647.53;;;-144.41;100.00
41684;BME280;27369;52.030;4.586;2023-04-29T02:17:38;108647.53;;;-144.41;100.00
41684;BME280;27369;52.030;4.586;2023-04-29T02:20:03;108647.53;;;-144.41;100.00
41684;BME280;27369;52.030;4.586;2023-04-29T02:22:29;108647.53;;;-144.41;100.00
41684;BME280;27369;52.030;4.586;2023-04-29T02:24:54;108647.53;;;-144.41;100.00
41684;BME280;27369;52.030;4.586;2023-04-29T02:27:20;108647.53;;;-144.41;100.00
41684;BME280;27369;52.030;4.586;2023-04-29T02:29:47;108647.53;;;-144.41;100.00
41684;BME280;27369;52.030;4.586;2023-04-29T02:32:12;108647.53;;;-144.41;100.00
41684;BME280;27369;52.030;4.586;2023-04-29T02:34:39;108647.53;;;-144.41;100.00
41684;BME280;27369;52.030;4.586;2023-04-29T02:37:04;108647.53;;;-144.41;100.00
41684;BME280;27369;52.030;4.586;2023-04-29T02:39:30;108647.53;;;-144.41;100.00
41684;BME280;27369;52.030;4.586;2023-04-29T02:41:56;108647.53;;;-144.41;100.00
41684;BME280;27369;52.030;4.586;2023-04-29T02:44:22;108647.53;;;-144.41;100.00
41684;BME280;27369;52.030;4.586;2023-04-29T02:46:48;108647.53;;;-144.41;100.00
41684;BME280;27369;52.030;4.586;2023-04-29T02:49:13;108647.53;;;-144.41;100.00
41684;BME280;27369;52.030;4.586;2023-04-29T02:51:39;108647.53;;;-144.41;100.00
41684;BME280;27369;52.030;4.586;2023-04-29T02:54:05;108647.53;;;-144.41;100.00
41684;BME280;27369;52.030;4.586;2023-04-29T02:56:31;108647.53;;;-144.41;100.00
41684;BME280;27369;52.030;4.586;2023-04-29T02:58:56;108647.53;;;-144.41;100.00
41684;BME280;27369;52.030;4.586;2023-04-29T03:01:22;108647.53;;;-144.41;100.00
41684;BME280;27369;52.030;4.586;2023-04-29T03:03:48;108647.53;;;-144.41;100.00
41684;BME280;27369;52.030;4.586;2023-04-29T03:06:13;108647.53;;;-144.41;100.00
41684;BME280;27369;52.030;4.586;2023-04-29T03:08:40;108647.53;;;-144.41;100.00
41684;BME280;27369;52.030;4.586;2023-04-29T03:11:05;108647.53;;;-144.41;100.00
41684;BME280;27369;52.030;4.586;2023-04-29T03:13:30;108647.53;;;-144.41;100.00
41684;BME280;27369;52.030;4.586;2023-04-29T03:15:56;108647.53;;;-144.41;100.00
41684;BME280;27369;52.030;4.586;2023-04-29T03:18:23;108647.53;;;-144.41;100.00
41684;BME280;27369;52.030;4.586;2023-04-29T03:20:49;108647.53;;;-144.41;100.00
41684;BME280;27369;52.030;4.586;2023-04-29T03:23:14;108647.53;;;-144.41;100.00
41684;BME280;27369;52.030;4.586;2023-04-29T03:25:40;108647.53;;;-144.41;100.00
41684;BME280;27369;52.030;4.586;2023-04-29T03:28:05;108647.53;;;-144.41;100.00
41684;BME280;27369;52.030;4.586;2023-04-29T03:30:32;108647.53;;;-144.41;100.00
41684;BME280;27369;52.030;4.586;2023-04-29T03:32:57;108647.53;;;-144.41;100.00
41684;BME280;27369;52.030;4.586;2023-04-29T03:35:22;108647.53;;;-144.41;100.00
41684;BME280;27369;52.030;4.586;2023-04-29T03:37:48;108647.53;;;-144.41;100.00
41684;BME280;27369;52.030;4.586;2023-04-29T03:40:13;108647.53;;;-144.41;100.00
41684;BME280;27369;52.030;4.586;2023-04-29T03:42:39;108647.53;;;-144.41;100.00
41684;BME280;27369;52.030;4.586;2023-04-29T03:45:04;108647.53;;;-144.41;100.00
41684;BME280;27369;52.030;4.586;2023-04-29T03:47:31;108647.53;;;-144.41;100.00
41684;BME280;27369;52.030;4.586;2023-04-29T03:49:56;108647.53;;;-144.41;100.00
41684;BME280;27369;52.030;4.586;2023-04-29T03:52:21;108647.53;;;-144.41;100.00
41684;BME280;27369;52.030;4.586;2023-04-29T03:54:47;108647.53;;;-144.41;100.00
41684;BME280;27369;52.030;4.586;2023-04-29T03:57:12;108647.53;;;-144.41;100.00
41684;BME280;27369;52.030;4.586;2023-04-29T03:59:38;108647.53;;;-144.41;100.00
41684;BME280;27369;52.030;4.586;2023-04-29T04:02:04;108647.53;;;-144.41;100.00
41684;BME280;27369;52.030;4.586;2023-04-29T04:04:29;108647.53;;;-144.41;100.00
41684;BME280;27369;52.030;4.586;2023-04-29T04:06:55;108647.53;;;-144.41;100.00
41684;BME280;27369;52.030;4.586;2023-04-29T04:09:20;108647.53;;;-144.41;100.00
41684;BME280;27369;52.030;4.586;2023-04-29T04:11:46;108647.53;;;-144.41;100.00
41684;BME280;27369;52.030;4.586;2023-04-29T04:14:11;108647.53;;;-144.41;100.00
41684;BME280;27369;52.030;4.586;2023-04-29T04:16:37;108647.53;;;-144.41;100.00
41684;BME280;27369;52.030;4.586;2023-04-29T04:19:02;108647.53;;;-144.41;100.00
41684;BME280;27369;52.030;4.586;2023-04-29T04:21:28;108647.53;;;-144.41;100.00
41684;BME280;27369;52.030;4.586;2023-04-29T04:23:54;108647.53;;;-144.41;100.00
41684;BME280;27369;52.030;4.586;2023-04-29T04:26:20;108647.53;;;-144.41;100.00
41684;BME280;27369;52.030;4.586;2023-04-29T04:28:45;108647.53;;;-144.41;100.00
41684;BME280;27369;52.030;4.586;2023-04-29T04:31:11;108647.53;;;-144.41;100.00
41684;BME280;27369;52.030;4.586;2023-04-29T04:33:40;108647.53;;;-144.41;100.00
41684;BME280;27369;52.030;4.586;2023-04-29T04:36:06;108647.53;;;-144.41;100.00
41684;BME280;27369;52.030;4.586;2023-04-29T04:38:32;108647.53;;;-144.41;100.00
41684;BME280;27369;52.030;4.586;2023-04-29T04:40:57;108647.53;;;-144.41;100.00
41684;BME280;27369;52.030;4.586;2023-04-29T04:43:23;108647.53;;;-144.41;100.00
41684;BME280;27369;52.030;4.586;2023-04-29T04:45:49;108647.53;;;-144.41;100.00
41684;BME280;27369;52.030;4.586;2023-04-29T04:48:14;108647.53;;;-144.41;100.00
41684;BME280;27369;52.030;4.586;2023-04-29T04:50:40;108647.53;;;-144.41;100.00
41684;BME280;27369;52.030;4.586;2023-04-29T04:53:05;108647.53;;;-144.41;100.00
41684;BME280;27369;52.030;4.586;2023-04-29T04:55:31;108647.53;;;-144.41;100.00
41684;BME280;27369;52.030;4.586;2023-04-29T04:57:57;108647.53;;;-144.41;100.00
41684;BME280;27369;52.030;4.586;2023-04-29T05:00:23;108647.53;;;-144.41;100.00
41684;BME280;27369;52.030;4.586;2023-04-29T05:02:48;108647.53;;;-144.41;100.00
41684;BME280;27369;52.030;4.586;2023-04-29T05:05:14;108647.53;;;-144.41;100.00
41684;BME280;27369;52.030;4.586;2023-04-29T05:07:39;108647.53;;;-144.41;100.00
41684;BME280;27369;52.030;4.586;2023-04-29T05:10:05;108647.53;;;-144.41;100.00
41684;BME280;27369;52.030;4.586;2023-04-29T05:13:17;108647.53;;;-144.41;100.00
41684;BME280;27369;52.030;4.586;2023-04-29T05:15:43;108647.53;;;-144.41;100.00
41684;BME280;27369;52.030;4.586;2023-04-29T05:18:09;108647.53;;;-144.41;100.00
41684;BME280;27369;52.030;4.586;2023-04-29T05:20:35;108647.53;;;-144.41;100.00
41684;BME280;27369;52.030;4.586;2023-04-29T05:23:01;108647.53;;;-144.41;100.00
41684;BME280;27369;52.030;4.586;2023-04-29T05:25:26;108647.53;;;-144.41;100.00
41684;BME280;27369;52.030;4.586;2023-04-29T05:27:52;108647.53;;;-144.41;100.00
41684;BME280;27369;52.030;4.586;2023-04-29T05:30:18;108647.53;;;-144.41;100.00
41684;BME280;27369;52.030;4.586;2023-04-29T05:32:43;108647.53;;;-144.41;100.00
41684;BME280;27369;52.030;4.586;2023-04-29T05:35:13;108647.53;;;-144.41;100.00
41684;BME280;27369;52.030;4.586;2023-04-29T05:37:38;108647.53;;;-144.41;100.00
41684;BME280;27369;52.030;4.586;2023-04-29T05:40:04;108647.53;;;-144.41;100.00
41684;BME280;27369;52.030;4.586;2023-04-29T05:42:30;108647.53;;;-144.41;100.00
41684;BME280;27369;52.030;4.586;2023-04-29T05:44:56;108647.53;;;-144.41;100.00
41684;BME280;27369;52.030;4.586;2023-04-29T05:47:21;108647.53;;;-144.41;100.00
41684;BME280;27369;52.030;4.586;2023-04-29T05:49:47;108647.53;;;-144.41;100.00
41684;BME280;27369;52.030;4.586;2023-04-29T05:52:13;108647.53;;;-144.41;100.00
41684;BME280;27369;52.030;4.586;2023-04-29T05:54:38;108647.53;;;-144.41;100.00
41684;BME280;27369;52.030;4.586;2023-04-29T05:57:04;108647.53;;;-144.41;100.00
41684;BME280;27369;52.030;4.586;2023-04-29T05:59:30;108647.53;;;-144.41;100.00
41684;BME280;27369;52.030;4.586;2023-04-29T06:01:56;108647.53;;;-144.41;100.00
41684;BME280;27369;52.030;4.586;2023-04-29T06:04:22;108647.53;;;-144.41;100.00
41684;BME280;27369;52.030;4.586;2023-04-29T06:06:49;108647.53;;;-144.41;100.00
41684;BME280;27369;52.030;4.586;2023-04-29T06:09:40;108647.53;;;-144.41;100.00
41684;BME280;27369;52.030;4.586;2023-04-29T06:12:32;108647.53;;;-144.41;100.00
41684;BME280;27369;52.030;4.586;2023-04-29T06:14:58;108647.53;;;-144.41;100.00
41684;BME280;27369;52.030;4.586;2023-04-29T06:17:23;108647.53;;;-144.41;100.00
41684;BME280;27369;52.030;4.586;2023-04-29T06:19:48;108647.53;;;-144.41;100.00
41684;BME280;27369;52.030;4.586;2023-04-29T06:22:14;108647.53;;;-144.41;100.00
41684;BME280;27369;52.030;4.586;2023-04-29T06:24:40;108647.53;;;-144.41;100.00
41684;BME280;27369;52.030;4.586;2023-04-29T06:27:05;108647.53;;;-144.41;100.00
41684;BME280;27369;52.030;4.586;2023-04-29T06:29:31;108647.53;;;-144.41;100.00
41684;BME280;27369;52.030;4.586;2023-04-29T06:31:56;108647.53;;;-144.41;100.00
41684;BME280;27369;52.030;4.586;2023-04-29T06:34:21;108647.53;;;-144.41;100.00
41684;BME280;27369;52.030;4.586;2023-04-29T06:36:47;108647.53;;;-144.41;100.00
41684;BME280;27369;52.030;4.586;2023-04-29T06:39:12;108647.53;;;-144.41;100.00
41684;BME280;27369;52.030;4.586;2023-04-29T06:41:38;108647.53;;;-144.41;100.00
41684;BME280;27369;52.030;4.586;2023-04-29T06:44:05;-20807.34;;;-144.41;100.00
41684;BME280;27369;52.030;4.586;2023-04-29T06:46:30;-20807.34;;;-144.41;100.00
41684;BME280;27369;52.030;4.586;2023-04-29T06:48:56;-20807.34;;;-144.41;100.00
41684;BME280;27369;52.030;4.586;2023-04-29T06:51:21;-20807.34;;;-144.41;100.00
41684;BME280;27369;52.030;4.586;2023-04-29T06:53:46;-20807.34;;;-144.41;100.00
41684;BME280;27369;52.030;4.586;2023-04-29T06:56:12;-20807.34;;;-144.41;100.00
41684;BME280;27369;52.030;4.586;2023-04-29T06:59:25;-20807.34;;;-144.41;100.00
41684;BME280;27369;52.030;4.586;2023-04-29T07:01:54;-20807.34;;;-144.41;100.00
41684;BME280;27369;52.030;4.586;2023-04-29T07:04:19;-20807.34;;;-144.41;100.00
41684;BME280;27369;52.030;4.586;2023-04-29T07:06:44;-20807.34;;;-144.41;100.00
41684;BME280;27369;52.030;4.586;2023-04-29T07:09:11;-20807.34;;;-144.41;100.00
41684;BME280;27369;52.030;4.586;2023-04-29T07:11:39;-20807.34;;;-144.41;100.00
41684;BME280;27369;52.030;4.586;2023-04-29T07:14:04;-20807.34;;;-144.41;100.00
41684;BME280;27369;52.030;4.586;2023-04-29T07:16:29;-20807.34;;;-144.41;100.00
41684;BME280;27369;52.030;4.586;2023-04-29T07:18:55;-20807.34;;;-144.41;100.00
41684;BME280;27369;52.030;4.586;2023-04-29T07:21:20;-20807.34;;;-144.41;100.00
41684;BME280;27369;52.030;4.586;2023-04-29T07:23:46;-20807.34;;;-144.41;100.00
41684;BME280;27369;52.030;4.586;2023-04-29T07:26:13;-18567.03;;;-144.41;100.00
41684;BME280;27369;52.030;4.586;2023-04-29T07:28:40;-4856.56;;;-144.41;100.00
41684;BME280;27369;52.030;4.586;2023-04-29T07:31:06;2892.78;;;-144.41;100.00
41684;BME280;27369;52.030;4.586;2023-04-29T07:33:33;9153.59;;;-144.41;100.00
41684;BME280;27369;52.030;4.586;2023-04-29T07:35:58;7149.03;;;-144.41;100.00
41684;BME280;27369;52.030;4.586;2023-04-29T07:38:24;3143.03;;;-144.41;100.00
41684;BME280;27369;52.030;4.586;2023-04-29T07:40:49;-358.84;;;-144.41;100.00
41684;BME280;27369;52.030;4.586;2023-04-29T07:43:15;11660.78;;;-144.41;100.00
41684;BME280;27369;52.030;4.586;2023-04-29T07:45:40;11911.59;;;-144.41;100.00
41684;BME280;27369;52.030;4.586;2023-04-29T07:48:05;13667.69;;;-144.41;100.00
41684;BME280;27369;52.030;4.586;2023-04-29T07:50:34;15675.63;;;-144.41;100.00
41684;BME280;27369;52.030;4.586;2023-04-29T07:53:01;17433.44;;;-144.41;100.00
41684;BME280;27369;52.030;4.586;2023-04-29T07:55:27;19945.94;;;-144.41;100.00
41684;BME280;27369;52.030;4.586;2023-04-29T07:57:54;27745.09;;;-144.41;100.00
41684;BME280;27369;52.030;4.586;2023-04-29T08:00:20;37831.53;;;-144.41;100.00
41684;BME280;27369;52.030;4.586;2023-04-29T08:02:49;44654.56;;;-144.41;100.00
41684;BME280;27369;52.030;4.586;2023-04-29T08:05:15;53770.34;;;-144.41;100.00
41684;BME280;27369;52.030;4.586;2023-04-29T08:07:40;65194.63;;;-144.41;100.00
41684;BME280;27369;52.030;4.586;2023-04-29T08:10:06;76906.72;;;-144.41;100.00
41684;BME280;27369;52.030;4.586;2023-04-29T08:12:32;66974.69;;;-144.41;100.00
41684;BME280;27369;52.030;4.586;2023-04-29T08:14:58;64686.16;;;-144.41;100.00
41684;BME280;27369;52.030;4.586;2023-04-29T08:17:23;94833.41;;;-144.41;100.00
41684;BME280;27369;52.030;4.586;2023-04-29T08:19:48;87630.41;;;-144.41;100.00
41684;BME280;27369;52.030;4.586;2023-04-29T08:22:14;103901.91;;;-144.41;100.00
41684;BME280;27369;52.030;4.586;2023-04-29T08:24:40;108645.53;;;-144.41;100.00
41684;BME280;27369;52.030;4.586;2023-04-29T08:27:07;107103.84;;;-144.41;100.00
41684;BME280;27369;52.030;4.586;2023-04-29T08:29:33;106333.22;;;-144.41;100.00
41684;BME280;27369;52.030;4.586;2023-04-29T08:31:59;106846.97;;;-144.41;100.00
41684;BME280;27369;52.030;4.586;2023-04-29T08:34:24;106846.97;;;-144.41;100.00
41684;BME280;27369;52.030;4.586;2023-04-29T08:36:51;107360.75;;;-144.41;100.00
41684;BME280;27369;52.030;4.586;2023-04-29T08:39:16;107617.69;;;-144.41;100.00
41684;BME280;27369;52.030;4.586;2023-04-29T08:41:41;108388.56;;;-144.41;100.00
41684;BME280;27369;52.030;4.586;2023-04-29T08:44:09;108388.56;;;-144.41;100.00
41684;BME280;27369;52.030;4.586;2023-04-29T08:46:35;108645.53;;;-144.41;100.00
41684;BME280;27369;52.030;4.586;2023-04-29T08:49:02;108645.53;;;-144.41;100.00
41684;BME280;27369;52.030;4.586;2023-04-29T08:51:28;108388.56;;;-144.41;100.00
41684;BME280;27369;52.030;4.586;2023-04-29T08:53:55;108645.53;;;-144.41;100.00
41684;BME280;27369;52.030;4.586;2023-04-29T08:56:20;108647.53;;;-144.41;100.00
41684;BME280;27369;52.030;4.586;2023-04-29T08:58:49;108645.53;;;-144.41;100.00
41684;BME280;27369;52.030;4.586;2023-04-29T09:01:27;108647.53;;;-144.41;100.00
41684;BME280;27369;52.030;4.586;2023-04-29T09:06:33;108647.53;;;-144.41;100.00
41684;BME280;27369;52.030;4.586;2023-04-29T09:08:59;108645.53;;;-144.41;100.00
41684;BME280;27369;52.030;4.586;2023-04-29T09:11:28;108131.56;;;-144.41;100.00
41684;BME280;27369;52.030;4.586;2023-04-29T09:14:01;107874.63;;;-144.41;100.00
41684;BME280;27369;52.030;4.586;2023-04-29T09:16:29;107617.69;;;-144.41;100.00
41684;BME280;27369;52.030;4.586;2023-04-29T09:18:55;106590.09;;;-144.41;100.00
41684;BME280;27369;52.030;4.586;2023-04-29T09:21:25;104792.41;;;-144.41;100.00
41684;BME280;27369;52.030;4.586;2023-04-29T09:24:00;104792.41;;;-144.41;100.00
41684;BME280;27369;52.030;4.586;2023-04-29T09:26:26;105305.97;;;-144.41;100.00
41684;BME280;27369;52.030;4.586;2023-04-29T09:29:06;106076.38;;;-144.41;100.00
41684;BME280;27369;52.030;4.586;2023-04-29T09:31:39;106076.38;;;-144.41;100.00
41684;BME280;27369;52.030;4.586;2023-04-29T09:34:06;105305.97;;;-144.41;100.00
41684;BME280;27369;52.030;4.586;2023-04-29T09:36:43;105562.75;;;-144.41;100.00
41684;BME280;27369;52.030;4.586;2023-04-29T09:44:05;104022.22;;;-144.41;100.00
41684;BME280;27369;52.030;4.586;2023-04-29T09:46:35;102482.31;;;-144.41;100.00
41684;BME280;27369;52.030;4.586;2023-04-29T09:49:02;100942.94;;;-144.41;100.00
41684;BME280;27369;52.030;4.586;2023-04-29T09:51:59;100429.97;;;-144.41;100.00
41684;BME280;27369;52.030;4.586;2023-04-29T09:54:29;101199.47;;;-144.41;100.00
41684;BME280;27369;52.030;4.586;2023-04-29T09:56:57;101712.56;;;-144.41;100.00
41684;BME280;27369;52.030;4.586;2023-04-29T09:59:23;102225.69;;;-144.41;100.00
41684;BME280;27369;52.030;4.586;2023-04-29T10:01:52;101456.00;;;-144.41;100.00
41684;BME280;27369;52.030;4.586;2023-04-29T10:04:19;101969.13;;;-144.41;100.00
41684;BME280;27369;52.030;4.586;2023-04-29T10:06:47;102225.69;;;-144.41;100.00
41684;BME280;27369;52.030;4.586;2023-04-29T10:09:14;99917.03;;;-144.41;100.00
41684;BME280;27369;52.030;4.586;2023-04-29T10:11:44;98891.41;;;-144.41;100.00
41684;BME280;27369;52.030;4.586;2023-04-29T10:14:15;97097.13;;;-144.41;100.00
41684;BME280;27369;52.030;4.586;2023-04-29T10:17:11;97866.00;;;-144.41;100.00
41684;BME280;27369;52.030;4.586;2023-04-29T10:19:41;97609.69;;;-144.41;100.00
41684;BME280;27369;52.030;4.586;2023-04-29T10:22:11;96840.88;;;-144.41;100.00
41684;BME280;27369;52.030;4.586;2023-04-29T10:24:43;94535.28;;;-144.41;100.00
41684;BME280;27369;52.030;4.586;2023-04-29T10:27:09;94023.13;;;-144.41;100.00
41684;BME280;27369;52.030;4.586;2023-04-29T10:29:37;89672.25;;;-144.41;100.00
41684;BME280;27369;52.030;4.586;2023-04-29T10:32:08;88137.75;;;-144.41;100.00
41684;BME280;27369;52.030;4.586;2023-04-29T10:34:37;85326.06;;;-144.41;100.00
41684;BME280;27369;52.030;4.586;2023-04-29T10:37:09;85070.56;;;-144.41;100.00
41684;BME280;27369;52.030;4.586;2023-04-29T10:39:42;86336.28;;;-144.41;100.00
41684;BME280;27369;52.030;4.586;2023-04-29T10:42:33;85070.56;;;-144.41;100.00
41684;BME280;27369;52.030;4.586;2023-04-29T10:45:23;80474.13;;;-144.41;100.00
41684;BME280;27369;52.030;4.586;2023-04-29T10:53:15;69006.03;;;-144.41;100.00
41684;BME280;27369;52.030;4.586;2023-04-29T10:55:42;67225.06;;;-144.41;100.00
41684;BME280;27369;52.030;4.586;2023-04-29T11:01:04;52257.50;;;-144.41;100.00
41684;BME280;27369;52.030;4.586;2023-04-29T11:03:46;48294.00;;;-144.41;100.00
41684;BME280;27369;52.030;4.586;2023-04-29T11:06:13;45198.00;;;-144.41;100.00
41684;BME280;27369;52.030;4.586;2023-04-29T11:08:39;43743.75;;;-144.41;100.00
41684;BME280;27369;52.030;4.586;2023-04-29T11:11:05;42262.38;;;-144.41;100.00
41684;BME280;27369;52.030;4.586;2023-04-29T11:13:38;41826.00;;;-144.41;100.00
41684;BME280;27369;52.030;4.586;2023-04-29T11:16:10;40840.81;;;-144.41;100.00
41684;BME280;27369;52.030;4.586;2023-04-29T11:21:33;39088.25;;;-144.41;100.00
41684;BME280;27369;52.030;4.586;2023-04-29T11:23:59;38510.16;;;-144.41;100.00
41684;BME280;27369;52.030;4.586;2023-04-29T11:26:25;38048.53;;;-144.41;100.00
41684;BME280;27369;52.030;4.586;2023-04-29T11:28:51;38186.59;;;-144.41;100.00
41684;BME280;27369;52.030;4.586;2023-04-29T11:31:18;37792.09;;;-144.41;100.00
41684;BME280;27369;52.030;4.586;2023-04-29T11:33:43;38013.00;;;-144.41;100.00
41684;BME280;27369;52.030;4.586;2023-04-29T11:36:10;37995.25;;;-144.41;100.00
41684;BME280;27369;52.030;4.586;2023-04-29T11:38:38;37910.44;;;-144.41;100.00
41684;BME280;27369;52.030;4.586;2023-04-29T11:41:04;37571.16;;;-144.41;100.00
41684;BME280;27369;52.030;4.586;2023-04-29T11:43:29;37900.56;;;-144.41;100.00
41684;BME280;27369;52.030;4.586;2023-04-29T11:45:55;37772.34;;;-144.41;100.00
41684;BME280;27369;52.030;4.586;2023-04-29T11:48:21;37709.25;;;-144.41;100.00
41684;BME280;27369;52.030;4.586;2023-04-29T11:50:52;37926.22;;;-144.41;100.00
41684;BME280;27369;52.030;4.586;2023-04-29T11:53:23;37928.19;;;-144.41;100.00
41684;BME280;27369;52.030;4.586;2023-04-29T11:55:51;37768.41;;;-144.41;100.00
41684;BME280;27369;52.030;4.586;2023-04-29T11:58:19;38137.28;;;-144.41;100.00
41684;BME280;27369;52.030;4.586;2023-04-29T12:00:49;38273.41;;;-144.41;100.00
41684;BME280;27369;52.030;4.586;2023-04-29T12:03:19;38312.88;;;-144.41;100.00
41684;BME280;27369;52.030;4.586;2023-04-29T12:05:54;37926.22;;;-144.41;100.00
41684;BME280;27369;52.030;4.586;2023-04-29T12:08:22;38273.41;;;-144.41;100.00
41684;BME280;27369;52.030;4.586;2023-04-29T12:10:48;38200.41;;;-144.41;100.00
41684;BME280;27369;52.030;4.586;2023-04-29T12:13:14;37586.94;;;-144.41;100.00
41684;BME280;27369;52.030;4.586;2023-04-29T12:15:40;36656.06;;;-144.41;100.00
41684;BME280;27369;52.030;4.586;2023-04-29T12:18:06;37314.75;;;-144.41;100.00
41684;BME280;27369;52.030;4.586;2023-04-29T12:20:32;36898.63;;;-144.41;100.00
41684;BME280;27369;52.030;4.586;2023-04-29T12:23:13;34456.00;;;-144.41;100.00
41684;BME280;27369;52.030;4.586;2023-04-29T12:25:39;34710.25;;;-144.41;100.00
41684;BME280;27369;52.030;4.586;2023-04-29T12:28:11;30478.88;;;-144.41;100.00
41684;BME280;27369;52.030;4.586;2023-04-29T12:30:37;24818.59;;;-144.41;100.00
41684;BME280;27369;52.030;4.586;2023-04-29T12:33:03;20700.03;;;-144.41;100.00
41684;BME280;27369;52.030;4.586;2023-04-29T12:35:28;21558.34;;;-144.41;100.00
41684;BME280;27369;52.030;4.586;2023-04-29T12:37:57;21827.47;;;-144.41;100.00
41684;BME280;27369;52.030;4.586;2023-04-29T12:40:23;22414.91;;;-144.41;100.00
41684;BME280;27369;52.030;4.586;2023-04-29T12:42:49;22733.22;;;-144.41;100.00
41684;BME280;27369;52.030;4.586;2023-04-29T12:45:31;14420.53;;;-144.41;100.00
41684;BME280;27369;52.030;4.586;2023-04-29T12:47:57;3893.84;;;-144.41;100.00
41684;BME280;27369;52.030;4.586;2023-04-29T12:50:31;6397.59;;;-144.41;100.00
41684;BME280;27369;52.030;4.586;2023-04-29T12:53:01;9905.59;;;-144.41;100.00
41684;BME280;27369;52.030;4.586;2023-04-29T12:55:28;11410.00;;;-144.41;100.00
41684;BME280;27369;52.030;4.586;2023-04-29T12:57:53;12914.97;;;-144.41;100.00